sensor_id;sensor_type;location;lat;lon;timestamp;temperature;humidity
27803;DHT22;15182;48.174;11.562;2023-04-03T00:02:26;9.20;97.40
27803;DHT22;15182;48.174;11.562;2023-04-03T00:04:58;9.20;97.40
27803;DHT22;15182;48.174;11.562;2023-04-03T00:07:31;9.10;97.40
27803;DHT22;15182;48.174;11.562;2023-04-03T00:10:04;9.10;97.40
27803;DHT22;15182;48.174;11.562;2023-04-03T00:12:36;9.10;97.40
27803;DHT22;15182;48.174;11.562;2023-04-03T00:15:09;9.10;97.50
27803;DHT22;15182;48.174;11.562;2023-04-03T00:17:40;9.10;97.40
27803;DHT22;15182;48.174;11.562;2023-04-03T00:20:13;9.10;97.50
27803;DHT22;15182;48.174;11.562;2023-04-03T00:22:44;9.10;97.40
27803;DHT22;15182;48.174;11.562;2023-04-03T00:25:15;9.10;97.40
27803;DHT22;15182;48.174;11.562;2023-04-03T00:27:47;9.10;97.40
27803;DHT22;15182;48.174;11.562;2023-04-03T00:30:20;9.10;97.40
27803;DHT22;15182;48.174;11.562;2023-04-03T00:32:53;9.10;97.40
27803;DHT22;15182;48.174;11.562;2023-04-03T00:35:25;9.10;97.40
27803;DHT22;15182;48.174;11.562;2023-04-03T00:37:58;9.10;97.50
27803;DHT22;15182;48.174;11.562;2023-04-03T00:40:36;9.10;97.50
27803;DHT22;15182;48.174;11.562;2023-04-03T00:43:13;9.10;97.40
27803;DHT22;15182;48.174;11.562;2023-04-03T00:45:49;9.10;97.40
27803;DHT22;15182;48.174;11.562;2023-04-03T00:48:24;9.10;97.40
27803;DHT22;15182;48.174;11.562;2023-04-03T00:50:59;9.10;97.40
27803;DHT22;15182;48.174;11.562;2023-04-03T00:53:35;9.10;97.50
27803;DHT22;15182;48.174;11.562;2023-04-03T00:56:12;9.10;97.50
27803;DHT22;15182;48.174;11.562;2023-04-03T00:58:48;9.10;97.40
27803;DHT22;15182;48.174;11.562;2023-04-03T01:01:25;9.00;97.30
27803;DHT22;15182;48.174;11.562;2023-04-03T01:04:00;9.10;97.40
27803;DHT22;15182;48.174;11.562;2023-04-03T01:06:36;9.00;97.40
27803;DHT22;15182;48.174;11.562;2023-04-03T01:09:09;9.10;97.60
27803;DHT22;15182;48.174;11.562;2023-04-03T01:11:42;9.10;97.50
27803;DHT22;15182;48.174;11.562;2023-04-03T01:14:14;9.10;97.50
27803;DHT22;15182;48.174;11.562;2023-04-03T01:16:52;9.00;97.40
27803;DHT22;15182;48.174;11.562;2023-04-03T01:19:24;9.00;97.50
27803;DHT22;15182;48.174;11.562;2023-04-03T01:22:10;9.00;97.50
27803;DHT22;15182;48.174;11.562;2023-04-03T01:24:46;9.10;97.60
27803;DHT22;15182;48.174;11.562;2023-04-03T01:27:19;9.00;97.50
27803;DHT22;15182;48.174;11.562;2023-04-03T01:29:50;9.00;97.50
27803;DHT22;15182;48.174;11.562;2023-04-03T01:32:23;9.00;97.40
27803;DHT22;15182;48.174;11.562;2023-04-03T01:34:54;9.00;97.40
27803;DHT22;15182;48.174;11.562;2023-04-03T01:37:26;9.00;97.40
27803;DHT22;15182;48.174;11.562;2023-04-03T01:39:57;9.00;97.40
27803;DHT22;15182;48.174;11.562;2023-04-03T01:42:28;9.00;97.40
27803;DHT22;15182;48.174;11.562;2023-04-03T01:45:00;9.00;97.40
27803;DHT22;15182;48.174;11.562;2023-04-03T01:47:33;8.90;97.80
27803;DHT22;15182;48.174;11.562;2023-04-03T01:50:06;8.90;97.40
27803;DHT22;15182;48.174;11.562;2023-04-03T01:52:39;8.90;97.40
27803;DHT22;15182;48.174;11.562;2023-04-03T01:55:11;8.90;97.40
27803;DHT22;15182;48.174;11.562;2023-04-03T01:57:44;8.90;97.40
27803;DHT22;15182;48.174;11.562;2023-04-03T02:00:17;8.90;97.40
27803;DHT22;15182;48.174;11.562;2023-04-03T02:02:50;8.90;97.40
27803;DHT22;15182;48.174;11.562;2023-04-03T02:05:21;8.90;97.50
27803;DHT22;15182;48.174;11.562;2023-04-03T02:07:52;8.90;97.50
27803;DHT22;15182;48.174;11.562;2023-04-03T02:10:24;8.90;97.40
27803;DHT22;15182;48.174;11.562;2023-04-03T02:12:55;8.90;97.30
27803;DHT22;15182;48.174;11.562;2023-04-03T02:15:27;8.90;97.30
27803;DHT22;15182;48.174;11.562;2023-04-03T02:17:59;8.90;97.30
27803;DHT22;15182;48.174;11.562;2023-04-03T02:20:31;8.90;97.30
27803;DHT22;15182;48.174;11.562;2023-04-03T02:23:02;8.90;97.40
27803;DHT22;15182;48.174;11.562;2023-04-03T02:25:34;8.90;97.40
27803;DHT22;15182;48.174;11.562;2023-04-03T02:28:06;8.90;97.40
27803;DHT22;15182;48.174;11.562;2023-04-03T02:30:37;8.90;97.40
27803;DHT22;15182;48.174;11.562;2023-04-03T02:33:10;9.00;97.40
27803;DHT22;15182;48.174;11.562;2023-04-03T02:35:43;9.00;97.30
27803;DHT22;15182;48.174;11.562;2023-04-03T02:38:22;9.00;97.20
27803;DHT22;15182;48.174;11.562;2023-04-03T02:40:53;9.00;97.20
27803;DHT22;15182;48.174;11.562;2023-04-03T02:43:24;9.00;97.20
27803;DHT22;15182;48.174;11.562;2023-04-03T02:45:56;9.00;97.20
27803;DHT22;15182;48.174;11.562;2023-04-03T02:48:28;9.00;97.20
27803;DHT22;15182;48.174;11.562;2023-04-03T02:51:00;9.00;97.10
27803;DHT22;15182;48.174;11.562;2023-04-03T02:53:33;9.00;97.10
27803;DHT22;15182;48.174;11.562;2023-04-03T02:56:11;9.00;97.00
27803;DHT22;15182;48.174;11.562;2023-04-03T02:58:44;9.00;96.90
27803;DHT22;15182;48.174;11.562;2023-04-03T03:01:17;9.00;96.90
27803;DHT22;15182;48.174;11.562;2023-04-03T03:03:50;9.00;97.00
27803;DHT22;15182;48.174;11.562;2023-04-03T03:06:21;9.00;97.00
27803;DHT22;15182;48.174;11.562;2023-04-03T03:08:55;9.00;97.10
27803;DHT22;15182;48.174;11.562;2023-04-03T03:11:26;9.00;97.00
27803;DHT22;15182;48.174;11.562;2023-04-03T03:13:57;9.00;96.90
27803;DHT22;15182;48.174;11.562;2023-04-03T03:16:28;9.00;96.90
27803;DHT22;15182;48.174;11.562;2023-04-03T03:19:01;9.00;96.90
27803;DHT22;15182;48.174;11.562;2023-04-03T03:21:32;9.00;96.70
27803;DHT22;15182;48.174;11.562;2023-04-03T03:24:04;9.00;96.70
27803;DHT22;15182;48.174;11.562;2023-04-03T03:26:35;9.00;96.60
27803;DHT22;15182;48.174;11.562;2023-04-03T03:29:06;9.00;96.50
27803;DHT22;15182;48.174;11.562;2023-04-03T03:31:38;9.00;96.50
27803;DHT22;15182;48.174;11.562;2023-04-03T03:34:11;8.90;96.50
27803;DHT22;15182;48.174;11.562;2023-04-03T03:36:42;8.90;96.50
27803;DHT22;15182;48.174;11.562;2023-04-03T03:39:14;8.90;96.50
27803;DHT22;15182;48.174;11.562;2023-04-03T03:41:48;8.90;96.50
27803;DHT22;15182;48.174;11.562;2023-04-03T03:44:21;8.90;96.40
27803;DHT22;15182;48.174;11.562;2023-04-03T03:46:57;8.90;96.50
27803;DHT22;15182;48.174;11.562;2023-04-03T03:49:31;8.90;96.40
27803;DHT22;15182;48.174;11.562;2023-04-03T03:52:03;8.90;96.50
27803;DHT22;15182;48.174;11.562;2023-04-03T03:54:34;8.90;96.50
27803;DHT22;15182;48.174;11.562;2023-04-03T03:57:05;8.90;96.40
27803;DHT22;15182;48.174;11.562;2023-04-03T03:59:37;9.00;96.40
27803;DHT22;15182;48.174;11.562;2023-04-03T04:02:10;9.00;96.40
27803;DHT22;15182;48.174;11.562;2023-04-03T04:04:42;9.00;96.40
27803;DHT22;15182;48.174;11.562;2023-04-03T04:07:14;9.00;96.30
27803;DHT22;15182;48.174;11.562;2023-04-03T04:09:45;9.00;96.70
27803;DHT22;15182;48.174;11.562;2023-04-03T04:12:17;9.00;96.30
27803;DHT22;15182;48.174;11.562;2023-04-03T04:14:49;8.90;96.30
27803;DHT22;15182;48.174;11.562;2023-04-03T04:17:20;8.90;96.60
27803;DHT22;15182;48.174;11.562;2023-04-03T04:19:54;8.90;96.20
27803;DHT22;15182;48.174;11.562;2023-04-03T04:22:25;8.90;96.10
27803;DHT22;15182;48.174;11.562;2023-04-03T04:24:59;8.90;96.10
27803;DHT22;15182;48.174;11.562;2023-04-03T04:27:30;8.90;96.00
27803;DHT22;15182;48.174;11.562;2023-04-03T04:30:04;8.90;96.10
27803;DHT22;15182;48.174;11.562;2023-04-03T04:32:37;8.90;96.10
27803;DHT22;15182;48.174;11.562;2023-04-03T04:35:10;8.90;96.20
27803;DHT22;15182;48.174;11.562;2023-04-03T04:37:44;8.90;96.10
27803;DHT22;15182;48.174;11.562;2023-04-03T04:40:16;8.90;96.00
27803;DHT22;15182;48.174;11.562;2023-04-03T04:42:48;8.90;96.00
27803;DHT22;15182;48.174;11.562;2023-04-03T04:45:19;8.90;95.90
27803;DHT22;15182;48.174;11.562;2023-04-03T04:47:51;8.90;95.80
27803;DHT22;15182;48.174;11.562;2023-04-03T04:50:24;8.90;95.90
27803;DHT22;15182;48.174;11.562;2023-04-03T04:52:58;8.80;95.80
27803;DHT22;15182;48.174;11.562;2023-04-03T04:55:30;8.80;95.90
27803;DHT22;15182;48.174;11.562;2023-04-03T04:58:03;8.80;96.00
27803;DHT22;15182;48.174;11.562;2023-04-03T05:00:34;8.80;95.90
27803;DHT22;15182;48.174;11.562;2023-04-03T05:03:07;8.80;95.90
27803;DHT22;15182;48.174;11.562;2023-04-03T05:05:40;8.80;95.90
27803;DHT22;15182;48.174;11.562;2023-04-03T05:08:12;8.80;95.90
27803;DHT22;15182;48.174;11.562;2023-04-03T05:10:47;8.80;96.00
27803;DHT22;15182;48.174;11.562;2023-04-03T05:13:19;8.80;96.00
27803;DHT22;15182;48.174;11.562;2023-04-03T05:15:51;8.80;96.00
27803;DHT22;15182;48.174;11.562;2023-04-03T05:18:22;8.80;96.00
27803;DHT22;15182;48.174;11.562;2023-04-03T05:20:56;8.80;95.80
27803;DHT22;15182;48.174;11.562;2023-04-03T05:23:28;8.80;95.70
27803;DHT22;15182;48.174;11.562;2023-04-03T05:26:04;8.80;95.80
27803;DHT22;15182;48.174;11.562;2023-04-03T05:28:36;8.80;95.80
27803;DHT22;15182;48.174;11.562;2023-04-03T05:31:10;8.80;95.80
27803;DHT22;15182;48.174;11.562;2023-04-03T05:33:42;8.80;95.80
27803;DHT22;15182;48.174;11.562;2023-04-03T05:36:19;8.80;95.80
27803;DHT22;15182;48.174;11.562;2023-04-03T05:38:55;8.80;95.70
27803;DHT22;15182;48.174;11.562;2023-04-03T05:41:27;8.80;95.80
27803;DHT22;15182;48.174;11.562;2023-04-03T05:44:01;8.80;95.70
27803;DHT22;15182;48.174;11.562;2023-04-03T05:46:32;8.80;95.60
27803;DHT22;15182;48.174;11.562;2023-04-03T05:49:08;8.80;96.00
27803;DHT22;15182;48.174;11.562;2023-04-03T05:51:42;8.70;95.90
27803;DHT22;15182;48.174;11.562;2023-04-03T05:54:26;8.70;95.60
27803;DHT22;15182;48.174;11.562;2023-04-03T05:57:11;8.70;95.60
27803;DHT22;15182;48.174;11.562;2023-04-03T05:59:44;8.70;95.60
27803;DHT22;15182;48.174;11.562;2023-04-03T06:02:18;8.70;95.70
27803;DHT22;15182;48.174;11.562;2023-04-03T06:04:51;8.70;95.70
27803;DHT22;15182;48.174;11.562;2023-04-03T06:07:25;8.70;95.70
27803;DHT22;15182;48.174;11.562;2023-04-03T06:09:58;8.70;95.60
27803;DHT22;15182;48.174;11.562;2023-04-03T06:12:30;8.70;95.70
27803;DHT22;15182;48.174;11.562;2023-04-03T06:15:01;8.70;95.60
27803;DHT22;15182;48.174;11.562;2023-04-03T06:17:34;8.70;95.50
27803;DHT22;15182;48.174;11.562;2023-04-03T06:20:09;8.70;95.50
27803;DHT22;15182;48.174;11.562;2023-04-03T06:22:42;8.70;95.40
27803;DHT22;15182;48.174;11.562;2023-04-03T06:25:16;8.70;95.40
27803;DHT22;15182;48.174;11.562;2023-04-03T06:27:48;8.60;95.50
27803;DHT22;15182;48.174;11.562;2023-04-03T06:30:19;8.60;95.60
27803;DHT22;15182;48.174;11.562;2023-04-03T06:32:50;8.70;95.50
27803;DHT22;15182;48.174;11.562;2023-04-03T06:35:22;8.60;95.80
27803;DHT22;15182;48.174;11.562;2023-04-03T06:37:55;8.70;95.50
27803;DHT22;15182;48.174;11.562;2023-04-03T06:40:27;8.70;95.50
27803;DHT22;15182;48.174;11.562;2023-04-03T06:42:58;8.70;95.50
27803;DHT22;15182;48.174;11.562;2023-04-03T06:45:30;8.70;95.50
27803;DHT22;15182;48.174;11.562;2023-04-03T06:48:01;8.70;95.50
27803;DHT22;15182;48.174;11.562;2023-04-03T06:50:33;8.70;95.50
27803;DHT22;15182;48.174;11.562;2023-04-03T06:53:06;8.80;95.60
27803;DHT22;15182;48.174;11.562;2023-04-03T06:55:38;8.80;95.60
27803;DHT22;15182;48.174;11.562;2023-04-03T06:58:11;8.90;95.60
27803;DHT22;15182;48.174;11.562;2023-04-03T07:00:43;8.90;95.50
27803;DHT22;15182;48.174;11.562;2023-04-03T07:03:17;9.00;95.40
27803;DHT22;15182;48.174;11.562;2023-04-03T07:05:48;9.00;95.10
27803;DHT22;15182;48.174;11.562;2023-04-03T07:08:20;9.00;95.10
27803;DHT22;15182;48.174;11.562;2023-04-03T07:10:53;9.00;95.10
27803;DHT22;15182;48.174;11.562;2023-04-03T07:13:25;9.00;95.20
27803;DHT22;15182;48.174;11.562;2023-04-03T07:15:56;9.00;95.20
27803;DHT22;15182;48.174;11.562;2023-04-03T07:18:28;9.10;95.10
27803;DHT22;15182;48.174;11.562;2023-04-03T07:20:59;9.10;95.00
27803;DHT22;15182;48.174;11.562;2023-04-03T07:23:32;9.10;94.90
27803;DHT22;15182;48.174;11.562;2023-04-03T07:26:04;9.10;94.80
27803;DHT22;15182;48.174;11.562;2023-04-03T07:28:38;9.10;94.80
27803;DHT22;15182;48.174;11.562;2023-04-03T07:31:11;9.20;94.70
27803;DHT22;15182;48.174;11.562;2023-04-03T07:33:43;9.20;94.60
27803;DHT22;15182;48.174;11.562;2023-04-03T07:36:19;9.20;94.60
27803;DHT22;15182;48.174;11.562;2023-04-03T07:38:53;9.20;94.50
27803;DHT22;15182;48.174;11.562;2023-04-03T07:41:26;9.20;94.60
27803;DHT22;15182;48.174;11.562;2023-04-03T07:43:58;9.20;94.60
27803;DHT22;15182;48.174;11.562;2023-04-03T07:46:30;9.20;94.60
27803;DHT22;15182;48.174;11.562;2023-04-03T07:49:01;9.20;94.60
27803;DHT22;15182;48.174;11.562;2023-04-03T07:51:32;9.20;94.50
27803;DHT22;15182;48.174;11.562;2023-04-03T07:54:05;9.20;94.50
27803;DHT22;15182;48.174;11.562;2023-04-03T07:56:36;9.20;94.60
27803;DHT22;15182;48.174;11.562;2023-04-03T07:59:08;9.30;94.70
27803;DHT22;15182;48.174;11.562;2023-04-03T08:01:39;9.30;94.60
27803;DHT22;15182;48.174;11.562;2023-04-03T08:04:10;9.30;94.60
27803;DHT22;15182;48.174;11.562;2023-04-03T08:06:41;9.30;94.70
27803;DHT22;15182;48.174;11.562;2023-04-03T08:09:12;9.30;94.70
27803;DHT22;15182;48.174;11.562;2023-04-03T08:11:45;9.30;94.60
27803;DHT22;15182;48.174;11.562;2023-04-03T08:14:18;9.30;94.50
27803;DHT22;15182;48.174;11.562;2023-04-03T08:16:49;9.30;94.40
27803;DHT22;15182;48.174;11.562;2023-04-03T08:19:22;9.30;94.40
27803;DHT22;15182;48.174;11.562;2023-04-03T08:21:53;9.30;94.40
27803;DHT22;15182;48.174;11.562;2023-04-03T08:24:26;9.30;94.40
27803;DHT22;15182;48.174;11.562;2023-04-03T08:26:57;9.20;94.30
27803;DHT22;15182;48.174;11.562;2023-04-03T08:29:30;9.20;94.30
27803;DHT22;15182;48.174;11.562;2023-04-03T08:32:02;9.20;94.40
27803;DHT22;15182;48.174;11.562;2023-04-03T08:34:33;9.20;94.50
27803;DHT22;15182;48.174;11.562;2023-04-03T08:37:07;9.20;94.40
27803;DHT22;15182;48.174;11.562;2023-04-03T08:39:40;9.20;94.40
27803;DHT22;15182;48.174;11.562;2023-04-03T08:42:19;9.30;94.30
27803;DHT22;15182;48.174;11.562;2023-04-03T08:45:01;9.30;94.30
27803;DHT22;15182;48.174;11.562;2023-04-03T08:47:40;9.30;94.40
27803;DHT22;15182;48.174;11.562;2023-04-03T08:50:18;9.30;94.70
27803;DHT22;15182;48.174;11.562;2023-04-03T08:52:52;9.30;94.20
27803;DHT22;15182;48.174;11.562;2023-04-03T08:55:28;9.30;94.20
27803;DHT22;15182;48.174;11.562;2023-04-03T08:58:03;9.30;94.20
27803;DHT22;15182;48.174;11.562;2023-04-03T09:00:41;9.30;94.30
27803;DHT22;15182;48.174;11.562;2023-04-03T09:03:17;9.30;94.40
27803;DHT22;15182;48.174;11.562;2023-04-03T09:05:53;9.40;94.50
27803;DHT22;15182;48.174;11.562;2023-04-03T09:08:30;9.40;94.30
27803;DHT22;15182;48.174;11.562;2023-04-03T09:11:14;9.40;94.20
27803;DHT22;15182;48.174;11.562;2023-04-03T09:13:54;9.50;94.20
27803;DHT22;15182;48.174;11.562;2023-04-03T09:16:43;9.50;94.30
27803;DHT22;15182;48.174;11.562;2023-04-03T09:19:23;9.50;94.10
27803;DHT22;15182;48.174;11.562;2023-04-03T09:22:17;9.50;94.10
27803;DHT22;15182;48.174;11.562;2023-04-03T09:24:52;9.50;94.00
27803;DHT22;15182;48.174;11.562;2023-04-03T09:27:29;9.50;94.00
27803;DHT22;15182;48.174;11.562;2023-04-03T09:30:01;9.60;94.10
27803;DHT22;15182;48.174;11.562;2023-04-03T09:32:36;9.60;94.10
27803;DHT22;15182;48.174;11.562;2023-04-03T09:35:19;9.60;93.80
27803;DHT22;15182;48.174;11.562;2023-04-03T09:37:58;9.70;93.70
27803;DHT22;15182;48.174;11.562;2023-04-03T09:40:35;9.70;93.70
27803;DHT22;15182;48.174;11.562;2023-04-03T09:43:29;9.80;93.60
27803;DHT22;15182;48.174;11.562;2023-04-03T09:46:20;9.80;93.50
27803;DHT22;15182;48.174;11.562;2023-04-03T09:48:58;9.80;93.50
27803;DHT22;15182;48.174;11.562;2023-04-03T09:51:33;9.80;93.60
27803;DHT22;15182;48.174;11.562;2023-04-03T09:54:25;9.80;93.50
27803;DHT22;15182;48.174;11.562;2023-04-03T09:57:04;9.80;93.30
27803;DHT22;15182;48.174;11.562;2023-04-03T09:59:41;9.80;93.80
27803;DHT22;15182;48.174;11.562;2023-04-03T10:02:32;9.80;93.50
27803;DHT22;15182;48.174;11.562;2023-04-03T10:05:23;9.80;93.20
27803;DHT22;15182;48.174;11.562;2023-04-03T10:08:07;9.80;93.30
27803;DHT22;15182;48.174;11.562;2023-04-03T10:10:48;9.80;93.20
27803;DHT22;15182;48.174;11.562;2023-04-03T10:13:37;9.80;93.50
27803;DHT22;15182;48.174;11.562;2023-04-03T10:16:23;9.70;93.60
27803;DHT22;15182;48.174;11.562;2023-04-03T10:19:05;9.70;93.50
27803;DHT22;15182;48.174;11.562;2023-04-03T10:22:01;9.70;93.40
27803;DHT22;15182;48.174;11.562;2023-04-03T10:24:46;9.70;93.50
27803;DHT22;15182;48.174;11.562;2023-04-03T10:27:25;9.70;93.30
27803;DHT22;15182;48.174;11.562;2023-04-03T10:30:02;9.60;93.50
27803;DHT22;15182;48.174;11.562;2023-04-03T10:32:47;9.70;93.60
27803;DHT22;15182;48.174;11.562;2023-04-03T10:35:37;9.70;93.40
27803;DHT22;15182;48.174;11.562;2023-04-03T10:38:18;9.70;93.20
27803;DHT22;15182;48.174;11.562;2023-04-03T10:40:59;9.70;93.30
27803;DHT22;15182;48.174;11.562;2023-04-03T10:43:42;9.70;93.20
27803;DHT22;15182;48.174;11.562;2023-04-03T10:46:20;9.70;92.90
27803;DHT22;15182;48.174;11.562;2023-04-03T10:49:05;9.70;92.80
27803;DHT22;15182;48.174;11.562;2023-04-03T10:51:45;9.70;92.70
27803;DHT22;15182;48.174;11.562;2023-04-03T10:54:24;9.70;92.80
27803;DHT22;15182;48.174;11.562;2023-04-03T10:57:00;9.60;92.70
27803;DHT22;15182;48.174;11.562;2023-04-03T10:59:35;9.60;92.70
27803;DHT22;15182;48.174;11.562;2023-04-03T11:02:11;9.60;92.80
27803;DHT22;15182;48.174;11.562;2023-04-03T11:04:55;9.50;92.90
27803;DHT22;15182;48.174;11.562;2023-04-03T11:07:36;9.50;92.80
27803;DHT22;15182;48.174;11.562;2023-04-03T11:10:14;9.50;92.90
27803;DHT22;15182;48.174;11.562;2023-04-03T11:12:56;9.50;92.80
27803;DHT22;15182;48.174;11.562;2023-04-03T11:15:32;9.50;92.90
27803;DHT22;15182;48.174;11.562;2023-04-03T11:18:06;9.40;92.90
27803;DHT22;15182;48.174;11.562;2023-04-03T11:20:44;9.40;93.00
27803;DHT22;15182;48.174;11.562;2023-04-03T11:23:24;9.40;93.20
27803;DHT22;15182;48.174;11.562;2023-04-03T11:26:04;9.40;93.30
27803;DHT22;15182;48.174;11.562;2023-04-03T11:28:41;9.40;93.20
27803;DHT22;15182;48.174;11.562;2023-04-03T11:31:36;9.40;93.10
27803;DHT22;15182;48.174;11.562;2023-04-03T11:34:25;9.50;93.20
27803;DHT22;15182;48.174;11.562;2023-04-03T11:37:11;9.50;93.20
27803;DHT22;15182;48.174;11.562;2023-04-03T11:39:51;9.50;92.90
27803;DHT22;15182;48.174;11.562;2023-04-03T11:42:28;9.50;92.70
27803;DHT22;15182;48.174;11.562;2023-04-03T11:45:25;9.50;92.80
27803;DHT22;15182;48.174;11.562;2023-04-03T11:48:29;9.50;92.80
27803;DHT22;15182;48.174;11.562;2023-04-03T11:51:04;9.60;93.00
27803;DHT22;15182;48.174;11.562;2023-04-03T11:54:52;9.60;92.60
27803;DHT22;15182;48.174;11.562;2023-04-03T11:58:02;9.70;91.70
27803;DHT22;15182;48.174;11.562;2023-04-03T12:01:03;9.80;91.40
27803;DHT22;15182;48.174;11.562;2023-04-03T12:07:18;9.90;91.00
27803;DHT22;15182;48.174;11.562;2023-04-03T12:10:02;10.00;90.80
27803;DHT22;15182;48.174;11.562;2023-04-03T12:12:56;10.20;90.70
27803;DHT22;15182;48.174;11.562;2023-04-03T12:15:54;10.40;90.50
27803;DHT22;15182;48.174;11.562;2023-04-03T12:18:55;10.60;90.10
27803;DHT22;15182;48.174;11.562;2023-04-03T12:24:40;10.80;89.80
27803;DHT22;15182;48.174;11.562;2023-04-03T12:27:28;10.90;90.00
27803;DHT22;15182;48.174;11.562;2023-04-03T12:30:07;11.00;88.80
27803;DHT22;15182;48.174;11.562;2023-04-03T12:32:57;11.00;88.70
27803;DHT22;15182;48.174;11.562;2023-04-03T12:35:34;11.00;87.20
27803;DHT22;15182;48.174;11.562;2023-04-03T12:38:28;11.10;87.90
27803;DHT22;15182;48.174;11.562;2023-04-03T12:41:18;11.20;87.20
27803;DHT22;15182;48.174;11.562;2023-04-03T12:44:12;11.50;86.80
27803;DHT22;15182;48.174;11.562;2023-04-03T12:46:54;11.70;86.70
27803;DHT22;15182;48.174;11.562;2023-04-03T12:49:34;11.90;86.10
27803;DHT22;15182;48.174;11.562;2023-04-03T12:52:18;12.00;85.70
27803;DHT22;15182;48.174;11.562;2023-04-03T12:54:54;12.00;84.80
27803;DHT22;15182;48.174;11.562;2023-04-03T12:57:26;12.00;85.00
27803;DHT22;15182;48.174;11.562;2023-04-03T13:00:01;12.00;85.10
27803;DHT22;15182;48.174;11.562;2023-04-03T13:02:48;12.00;84.90
27803;DHT22;15182;48.174;11.562;2023-04-03T13:05:21;12.00;85.10
27803;DHT22;15182;48.174;11.562;2023-04-03T13:08:00;12.00;85.20
27803;DHT22;15182;48.174;11.562;2023-04-03T13:10:35;12.10;83.90
27803;DHT22;15182;48.174;11.562;2023-04-03T13:13:18;12.20;84.40
27803;DHT22;15182;48.174;11.562;2023-04-03T13:15:52;12.20;84.20
27803;DHT22;15182;48.174;11.562;2023-04-03T13:18:32;12.20;83.60
27803;DHT22;15182;48.174;11.562;2023-04-03T13:21:11;12.20;81.40
27803;DHT22;15182;48.174;11.562;2023-04-03T13:23:49;12.20;81.70
27803;DHT22;15182;48.174;11.562;2023-04-03T13:26:24;12.10;81.30
27803;DHT22;15182;48.174;11.562;2023-04-03T13:29:03;12.10;81.20
27803;DHT22;15182;48.174;11.562;2023-04-03T13:31:39;12.00;80.50
27803;DHT22;15182;48.174;11.562;2023-04-03T13:34:16;11.90;81.00
27803;DHT22;15182;48.174;11.562;2023-04-03T13:36:59;11.80;80.60
27803;DHT22;15182;48.174;11.562;2023-04-03T13:39:34;11.70;80.50
27803;DHT22;15182;48.174;11.562;2023-04-03T13:42:20;11.60;81.40
27803;DHT22;15182;48.174;11.562;2023-04-03T13:45:10;11.50;80.90
27803;DHT22;15182;48.174;11.562;2023-04-03T13:47:51;11.40;81.00
27803;DHT22;15182;48.174;11.562;2023-04-03T13:50:48;11.40;81.70
27803;DHT22;15182;48.174;11.562;2023-04-03T13:53:19;11.30;81.90
27803;DHT22;15182;48.174;11.562;2023-04-03T13:55:59;11.30;82.00
27803;DHT22;15182;48.174;11.562;2023-04-03T13:58:38;11.20;81.60
27803;DHT22;15182;48.174;11.562;2023-04-03T14:01:23;11.20;81.80
27803;DHT22;15182;48.174;11.562;2023-04-03T14:03:57;11.20;81.40
27803;DHT22;15182;48.174;11.562;2023-04-03T14:06:30;11.10;81.40
27803;DHT22;15182;48.174;11.562;2023-04-03T14:09:02;11.20;82.10
27803;DHT22;15182;48.174;11.562;2023-04-03T14:11:35;11.20;82.20
27803;DHT22;15182;48.174;11.562;2023-04-03T14:14:11;11.20;81.40
27803;DHT22;15182;48.174;11.562;2023-04-03T14:16:47;11.20;81.20
27803;DHT22;15182;48.174;11.562;2023-04-03T14:19:25;11.20;81.30
27803;DHT22;15182;48.174;11.562;2023-04-03T14:21:59;11.30;81.30
27803;DHT22;15182;48.174;11.562;2023-04-03T14:24:35;11.30;81.20
27803;DHT22;15182;48.174;11.562;2023-04-03T14:27:15;11.30;81.00
27803;DHT22;15182;48.174;11.562;2023-04-03T14:29:48;11.30;79.90
27803;DHT22;15182;48.174;11.562;2023-04-03T14:32:22;11.40;81.00
27803;DHT22;15182;48.174;11.562;2023-04-03T14:34:56;11.50;80.50
27803;DHT22;15182;48.174;11.562;2023-04-03T14:37:30;11.50;80.00
27803;DHT22;15182;48.174;11.562;2023-04-03T14:40:06;11.50;79.80
27803;DHT22;15182;48.174;11.562;2023-04-03T14:42:41;11.60;79.30
27803;DHT22;15182;48.174;11.562;2023-04-03T14:45:13;11.60;79.30
27803;DHT22;15182;48.174;11.562;2023-04-03T14:47:47;11.60;79.00
27803;DHT22;15182;48.174;11.562;2023-04-03T14:50:23;11.50;78.60
27803;DHT22;15182;48.174;11.562;2023-04-03T14:52:58;11.50;78.10
27803;DHT22;15182;48.174;11.562;2023-04-03T14:55:29;11.50;77.70
27803;DHT22;15182;48.174;11.562;2023-04-03T14:58:01;11.50;77.70
27803;DHT22;15182;48.174;11.562;2023-04-03T15:00:32;11.50;77.20
27803;DHT22;15182;48.174;11.562;2023-04-03T15:03:03;11.40;77.10
27803;DHT22;15182;48.174;11.562;2023-04-03T15:05:37;11.30;76.80
27803;DHT22;15182;48.174;11.562;2023-04-03T15:08:17;11.30;76.00
27803;DHT22;15182;48.174;11.562;2023-04-03T15:10:52;11.20;75.30
27803;DHT22;15182;48.174;11.562;2023-04-03T15:13:25;11.10;75.90
27803;DHT22;15182;48.174;11.562;2023-04-03T15:15:56;11.10;75.70
27803;DHT22;15182;48.174;11.562;2023-04-03T15:18:30;11.10;75.90
27803;DHT22;15182;48.174;11.562;2023-04-03T15:21:05;11.00;75.70
27803;DHT22;15182;48.174;11.562;2023-04-03T15:23:37;10.90;75.60
27803;DHT22;15182;48.174;11.562;2023-04-03T15:26:08;10.90;75.80
27803;DHT22;15182;48.174;11.562;2023-04-03T15:28:41;10.90;75.40
27803;DHT22;15182;48.174;11.562;2023-04-03T15:31:13;10.80;75.00
27803;DHT22;15182;48.174;11.562;2023-04-03T15:33:44;10.80;75.20
27803;DHT22;15182;48.174;11.562;2023-04-03T15:36:17;10.80;74.90
27803;DHT22;15182;48.174;11.562;2023-04-03T15:38:48;10.70;74.50
27803;DHT22;15182;48.174;11.562;2023-04-03T15:41:20;10.70;74.80
27803;DHT22;15182;48.174;11.562;2023-04-03T15:43:51;10.70;74.70
27803;DHT22;15182;48.174;11.562;2023-04-03T15:46:23;10.70;74.80
27803;DHT22;15182;48.174;11.562;2023-04-03T15:48:55;10.70;74.60
27803;DHT22;15182;48.174;11.562;2023-04-03T15:51:28;10.70;74.40
27803;DHT22;15182;48.174;11.562;2023-04-03T15:53:59;10.70;73.70
27803;DHT22;15182;48.174;11.562;2023-04-03T15:56:30;10.60;74.00
27803;DHT22;15182;48.174;11.562;2023-04-03T15:59:02;10.60;73.80
27803;DHT22;15182;48.174;11.562;2023-04-03T16:01:33;10.60;73.60
27803;DHT22;15182;48.174;11.562;2023-04-03T16:04:05;10.60;74.00
27803;DHT22;15182;48.174;11.562;2023-04-03T16:06:40;10.60;74.00
27803;DHT22;15182;48.174;11.562;2023-04-03T16:09:12;10.60;74.00
27803;DHT22;15182;48.174;11.562;2023-04-03T16:11:43;10.60;74.20
27803;DHT22;15182;48.174;11.562;2023-04-03T16:14:14;10.50;74.30
27803;DHT22;15182;48.174;11.562;2023-04-03T16:16:45;10.50;74.20
27803;DHT22;15182;48.174;11.562;2023-04-03T16:19:17;10.50;74.20
27803;DHT22;15182;48.174;11.562;2023-04-03T16:21:50;10.50;74.30
27803;DHT22;15182;48.174;11.562;2023-04-03T16:24:22;10.50;73.90
27803;DHT22;15182;48.174;11.562;2023-04-03T16:26:53;10.50;74.80
27803;DHT22;15182;48.174;11.562;2023-04-03T16:29:25;10.40;73.60